Time;durP1;ratioP1;P1;durP2;ratioP2;P2;SDS_P1;SDS_P2;PMS_P1;PMS_P2;Temp;Humidity;BMP_temperature;BMP_pressure;BME280_temperature;BME280_humidity;BME280_pressure;Samples;Min_cycle;Max_cycle;Signal;HPM_P1;HPM_P2
2023/08/17 00:00:27;;;;;;;;;;;21.70;51.90;;;17.95;90.60;95576.66;5000151;28;19916;-45
2023/08/17 00:02:52;;;;;;;;;;;21.70;51.90;;;17.88;89.87;95574.44;5007206;28;19916;-49
2023/08/17 00:05:18;;;;;;;;;;;21.70;52.00;;;17.89;90.33;95572.53;5010518;28;19909;-45
2023/08/17 00:07:44;;;;;;;;;;;21.60;51.90;;;17.85;89.41;95577.75;5013005;28;19920;-46
2023/08/17 00:10:10;;;;;;;;;;;21.60;52.00;;;17.85;90.41;95576.97;5000317;28;19909;-45
2023/08/17 00:12:36;;;;;;;;;;;21.60;52.00;;;17.82;90.97;95569.50;5012586;28;20276;-45
2023/08/17 00:15:01;;;;;;;;;;;21.60;52.10;;;17.80;91.27;95570.59;5012042;28;19924;-46
2023/08/17 00:17:27;;;;;;;;;;;21.60;52.10;;;17.78;91.49;95570.13;4998498;28;19916;-47
2023/08/17 00:19:53;;;;;;;;;;;21.50;52.10;;;17.72;92.20;95578.63;5013224;28;20006;-46
2023/08/17 00:22:19;;;;;;;;;;;21.50;52.20;;;17.73;92.52;95574.81;5009827;28;19916;-53
2023/08/17 00:24:44;;;;;;;;;;;21.50;52.30;;;17.72;92.20;95574.00;4999665;28;19964;-46
2023/08/17 00:27:11;;;;;;;;;;;21.50;52.30;;;17.67;90.96;95574.13;5010456;28;19913;-46
2023/08/17 00:29:37;;;;;;;;;;;21.50;52.40;;;17.66;88.33;95577.16;5000010;28;19920;-46
2023/08/17 00:32:03;;;;;;;;;;;21.40;52.40;;;17.75;88.68;95580.69;5012507;28;19916;-47
2023/08/17 00:34:29;;;;;;;;;;;21.50;52.50;;;17.83;87.15;95574.59;4996196;28;19910;-47
2023/08/17 00:36:55;;;;;;;;;;;21.50;52.60;;;17.85;89.93;95574.25;5006363;28;19919;-46
2023/08/17 00:39:21;;;;;;;;;;;21.50;52.50;;;17.87;87.04;95572.84;5006911;28;19931;-47
2023/08/17 00:41:46;;;;;;;;;;;21.50;52.50;;;17.91;87.08;95568.41;4999406;28;19909;-45
2023/08/17 00:44:12;;;;;;;;;;;21.60;52.50;;;17.93;86.36;95568.91;5012421;28;19917;-45
2023/08/17 00:46:39;;;;;;;;;;;21.60;52.50;;;17.95;86.29;95577.47;5010352;28;20411;-44
2023/08/17 00:49:06;;;;;;;;;;;21.60;52.40;;;18.00;84.82;95582.72;4999832;28;20291;-47
2023/08/17 00:51:33;;;;;;;;;;;21.60;52.40;;;18.02;84.80;95574.34;5005362;28;20508;-45
2023/08/17 00:54:01;;;;;;;;;;;21.60;52.40;;;17.98;84.35;95573.34;5008398;28;19915;-48
2023/08/17 00:56:27;;;;;;;;;;;21.70;52.40;;;17.99;86.64;95577.66;5012755;28;19909;-50
2023/08/17 00:58:55;;;;;;;;;;;21.70;52.30;;;17.96;87.31;95581.75;5002293;28;19952;-50
2023/08/17 01:01:22;;;;;;;;;;;21.70;52.30;;;17.82;88.12;95578.38;5007118;28;19909;-46
2023/08/17 01:03:48;;;;;;;;;;;21.70;52.30;;;17.80;88.08;95588.69;5014450;28;19909;-47
2023/08/17 01:06:13;;;;;;;;;;;21.60;52.20;;;17.75;88.85;95583.38;5000260;28;20378;-49
2023/08/17 01:08:43;;;;;;;;;;;21.60;52.20;;;17.65;89.45;95578.28;5013385;28;20329;-48
2023/08/17 01:11:25;;;;;;;;;;;21.50;52.20;;;17.59;90.02;95572.22;5008563;28;20314;-49
2023/08/17 01:14:06;;;;;;;;;;;21.50;52.30;;;17.53;90.63;95573.44;5013256;28;20295;-47
2023/08/17 01:16:52;;;;;;;;;;;21.40;52.30;;;17.43;92.23;95579.91;5003766;28;19916;-49
2023/08/17 01:19:27;;;;;;;;;;;21.40;52.50;;;17.44;91.72;95586.06;5011226;28;19909;-54
2023/08/17 01:22:03;;;;;;;;;;;21.30;52.60;;;17.33;91.14;95578.25;5001429;28;19909;-53
2023/08/17 01:24:29;;;;;;;;;;;21.30;52.60;;;17.35;93.34;95581.41;4999862;28;20003;-54
2023/08/17 01:26:55;;;;;;;;;;;21.20;52.70;;;17.33;93.22;95580.16;5012616;28;19916;-54
2023/08/17 01:29:21;;;;;;;;;;;21.20;52.80;;;17.34;92.87;95587.13;4998992;28;19909;-51
2023/08/17 01:32:12;;;;;;;;;;;21.20;52.90;;;17.22;94.08;95590.34;5013280;28;19939;-52
2023/08/17 01:34:50;;;;;;;;;;;21.20;52.90;;;17.17;94.10;95587.00;4998042;28;19917;-52
2023/08/17 01:37:20;;;;;;;;;;;21.10;53.00;;;17.13;94.29;95589.50;5006869;28;20364;-54
2023/08/17 01:39:55;;;;;;;;;;;21.10;53.00;;;17.05;94.76;95590.25;5001214;28;19913;-54
2023/08/17 01:42:24;;;;;;;;;;;21.00;53.10;;;17.02;95.00;95590.84;5010820;28;19945;-52
2023/08/17 01:44:50;;;;;;;;;;;20.90;53.10;;;16.98;95.16;95593.34;5003341;28;19960;-50
2023/08/17 01:47:19;;;;;;;;;;;20.90;53.20;;;16.91;95.72;95584.09;5008748;28;20375;-51
2023/08/17 01:49:45;;;;;;;;;;;20.80;53.30;;;16.91;96.20;95594.88;5011395;28;20006;-52
2023/08/17 01:52:11;;;;;;;;;;;20.80;53.50;;;16.89;96.30;95576.31;5009250;28;20497;-53
2023/08/17 01:54:37;;;;;;;;;;;20.70;53.50;;;16.85;96.56;95588.81;5009120;28;19915;-51
2023/08/17 01:57:02;;;;;;;;;;;20.70;53.60;;;16.82;97.22;95592.09;5005142;28;20018;-53
2023/08/17 01:59:28;;;;;;;;;;;20.70;53.70;;;16.80;97.51;95595.13;5001652;28;19963;-50
2023/08/17 02:01:54;;;;;;;;;;;20.60;53.70;;;16.76;97.76;95588.72;5004934;28;19909;-54
2023/08/17 02:04:20;;;;;;;;;;;20.60;53.80;;;16.75;98.08;95581.75;5011082;28;20433;-52
2023/08/17 02:06:45;;;;;;;;;;;20.60;53.90;;;16.72;99.37;95578.84;5000934;28;19931;-53
2023/08/17 02:09:11;;;;;;;;;;;20.60;53.90;;;16.70;99.23;95583.75;5006240;28;19957;-52
2023/08/17 02:11:37;;;;;;;;;;;20.60;54.00;;;16.67;99.77;95579.75;5011242;28;19909;-49
2023/08/17 02:14:02;;;;;;;;;;;20.50;54.10;;;16.68;99.26;95588.63;4999456;28;19948;-51
2023/08/17 02:16:28;;;;;;;;;;;20.50;54.20;;;16.68;99.48;95577.88;5011456;28;20011;-52
2023/08/17 02:18:54;;;;;;;;;;;20.50;54.30;;;16.68;99.98;95585.94;4999426;28;19909;-51
2023/08/17 02:21:20;;;;;;;;;;;20.50;54.30;;;16.68;100.00;95578.69;5006960;28;19913;-48
2023/08/17 02:23:45;;;;;;;;;;;20.50;54.40;;;16.67;99.93;95585.13;4999103;28;19963;-51
2023/08/17 02:26:11;;;;;;;;;;;20.50;54.50;;;16.69;100.00;95585.63;5002819;28;19920;-48
2023/08/17 02:28:37;;;;;;;;;;;20.50;54.60;;;16.69;100.00;95580.25;5023661;28;19920;-48
2023/08/17 02:31:03;;;;;;;;;;;20.60;54.70;;;16.72;99.88;95590.41;5005054;28;19909;-50
2023/08/17 02:33:29;;;;;;;;;;;20.60;54.70;;;16.72;99.37;95592.31;5011134;28;19917;-51
2023/08/17 02:35:54;;;;;;;;;;;20.60;54.70;;;16.68;99.41;95589.44;5004748;28;19909;-50
2023/08/17 02:38:20;;;;;;;;;;;20.60;54.70;;;16.67;99.13;95593.19;5009656;28;19962;-49
2023/08/17 02:40:48;;;;;;;;;;;20.60;54.70;;;16.69;98.92;95588.31;4997408;28;19909;-49
2023/08/17 02:43:13;;;;;;;;;;;20.60;54.70;;;16.67;100.00;95579.75;5014404;28;19913;-53
2023/08/17 02:45:39;;;;;;;;;;;20.60;54.80;;;16.68;99.61;95584.06;5008637;28;19909;-51
2023/08/17 02:48:05;;;;;;;;;;;20.60;54.80;;;16.68;99.39;95577.88;5002739;28;20268;-54
2023/08/17 02:50:31;;;;;;;;;;;20.60;54.80;;;16.69;99.26;95579.47;5005547;28;19916;-54
2023/08/17 02:52:56;;;;;;;;;;;20.60;54.80;;;16.69;99.31;95580.25;5013396;28;19924;-51
2023/08/17 02:55:22;;;;;;;;;;;20.60;54.90;;;16.70;99.33;95578.34;5020931;28;19916;-50
2023/08/17 02:57:48;;;;;;;;;;;20.60;54.90;;;16.72;99.29;95582.34;5011862;28;20378;-51
2023/08/17 03:00:14;;;;;;;;;;;20.50;55.00;;;16.72;99.93;95578.84;5014313;28;19913;-54
2023/08/17 03:02:40;;;;;;;;;;;20.50;55.00;;;16.73;100.00;95573.16;5007157;28;20300;-54
2023/08/17 03:05:06;;;;;;;;;;;20.60;55.10;;;16.73;100.00;95575.84;5009014;28;19909;-50
2023/08/17 03:07:32;;;;;;;;;;;20.60;55.10;;;16.73;100.00;95580.44;5006777;28;19917;-48
2023/08/17 03:09:57;;;;;;;;;;;20.60;55.10;;;16.74;100.00;95577.47;5007132;28;19909;-52
2023/08/17 03:12:23;;;;;;;;;;;20.60;55.20;;;16.73;99.96;95572.38;5003281;28;20386;-48
2023/08/17 03:14:49;;;;;;;;;;;20.60;55.20;;;16.70;99.75;95571.06;5000257;28;19909;-53
2023/08/17 03:17:15;;;;;;;;;;;20.60;55.20;;;16.69;99.61;95569.50;5006136;28;20351;-50
2023/08/17 03:19:41;;;;;;;;;;;20.60;55.20;;;16.67;99.35;95563.63;5008141;28;20368;-52
2023/08/17 03:22:06;;;;;;;;;;;20.60;55.20;;;16.64;99.91;95565.03;5006893;28;20431;-54
2023/08/17 03:24:32;;;;;;;;;;;20.60;55.20;;;16.63;99.70;95557.25;5003698;28;19909;-49
2023/08/17 03:26:58;;;;;;;;;;;20.60;55.20;;;16.61;99.77;95564.84;5002448;28;19909;-50
2023/08/17 03:29:24;;;;;;;;;;;20.50;55.20;;;16.59;100.00;95565.16;5000356;28;19909;-49
2023/08/17 03:31:49;;;;;;;;;;;20.50;55.30;;;16.59;100.00;95564.34;5012732;28;19909;-54
2023/08/17 03:34:15;;;;;;;;;;;20.50;55.40;;;16.56;100.00;95563.06;5006736;28;19940;-53
2023/08/17 03:36:41;;;;;;;;;;;20.50;55.40;;;16.51;100.00;95560.47;5001757;28;19919;-48
2023/08/17 03:39:07;;;;;;;;;;;20.50;55.40;;;16.48;100.00;95554.91;5000894;28;19952;-49
2023/08/17 03:41:32;;;;;;;;;;;20.40;55.40;;;16.48;100.00;95562.97;5012822;28;19909;-54
2023/08/17 03:43:58;;;;;;;;;;;20.40;55.50;;;16.45;100.00;95563.59;5011363;28;19913;-54
2023/08/17 03:46:24;;;;;;;;;;;20.40;55.60;;;16.42;100.00;95559.59;4995547;28;19909;-53
2023/08/17 03:48:50;;;;;;;;;;;20.30;55.60;;;16.37;100.00;95560.50;5005994;28;19924;-51
2023/08/17 03:51:15;;;;;;;;;;;20.30;55.70;;;16.30;100.00;95560.13;4999902;28;19913;-51
2023/08/17 03:53:41;;;;;;;;;;;20.30;55.70;;;16.31;100.00;95559.03;5013049;28;19927;-50
2023/08/17 03:56:07;;;;;;;;;;;20.30;55.70;;;16.31;100.00;95559.03;5000272;28;20431;-53
2023/08/17 03:58:34;;;;;;;;;;;20.30;56.10;;;16.28;100.00;95562.31;5011120;28;19909;-52
2023/08/17 04:01:00;;;;;;;;;;;20.20;55.80;;;16.30;100.00;95559.34;5012873;28;19909;-54
2023/08/17 04:03:26;;;;;;;;;;;20.20;55.80;;;16.25;100.00;95567.50;5004646;28;19944;-53
2023/08/17 04:05:52;;;;;;;;;;;20.20;55.90;;;16.18;100.00;95566.00;5000106;28;19955;-52
2023/08/17 04:08:17;;;;;;;;;;;20.10;55.90;;;16.14;100.00;95572.31;5003581;28;19914;-49
2023/08/17 04:10:43;;;;;;;;;;;20.10;56.00;;;16.08;100.00;95568.91;5005641;28;19909;-52
2023/08/17 04:13:09;;;;;;;;;;;20.00;56.00;;;16.03;100.00;95579.75;5003293;28;19916;-52
2023/08/17 04:15:35;;;;;;;;;;;20.00;56.10;;;16.02;100.00;95563.94;5011950;28;19947;-52
2023/08/17 04:18:01;;;;;;;;;;;19.90;56.10;;;16.00;100.00;95569.59;5003794;28;20275;-53
2023/08/17 04:20:27;;;;;;;;;;;19.90;56.20;;;15.97;100.00;95572.88;5006367;28;19910;-49
2023/08/17 04:22:53;;;;;;;;;;;19.90;56.20;;;15.98;100.00;95563.72;5011956;28;19909;-53
2023/08/17 04:25:18;;;;;;;;;;;19.90;56.30;;;15.97;100.00;95564.84;5000038;28;19924;-53
2023/08/17 04:27:44;;;;;;;;;;;19.90;56.40;;;15.94;100.00;95574.28;5006694;28;20306;-50
2023/08/17 04:30:11;;;;;;;;;;;19.90;56.50;;;15.90;100.00;95570.59;4999162;28;19956;-54
2023/08/17 04:32:36;;;;;;;;;;;19.90;56.50;;;15.93;100.00;95577.28;5012873;28;19913;-49
2023/08/17 04:35:02;;;;;;;;;;;19.90;56.50;;;15.91;100.00;95580.25;5010564;28;20541;-48
2023/08/17 04:37:28;;;;;;;;;;;19.90;56.60;;;15.91;100.00;95574.06;5012621;28;19909;-48
2023/08/17 04:39:54;;;;;;;;;;;19.90;56.60;;;15.95;100.00;95575.06;4999024;28;20368;-48
2023/08/17 04:42:20;;;;;;;;;;;19.90;56.60;;;15.94;100.00;95571.59;5002142;28;20269;-50
2023/08/17 04:44:46;;;;;;;;;;;19.90;56.60;;;15.94;100.00;95579.66;4999639;28;19961;-54
2023/08/17 04:47:11;;;;;;;;;;;19.90;56.60;;;15.97;100.00;95578.25;5002564;28;20007;-54
2023/08/17 04:49:37;;;;;;;;;;;19.90;56.70;;;15.99;100.00;95583.34;5005275;28;19924;-53
2023/08/17 04:52:04;;;;;;;;;;;20.00;56.70;;;15.97;100.00;95578.25;5001219;28;19962;-52
2023/08/17 04:54:29;;;;;;;;;;;20.00;56.70;;;16.00;100.00;95580.34;5008239;28;20295;-54
2023/08/17 04:56:55;;;;;;;;;;;20.00;56.70;;;16.06;100.00;95584.53;5004091;28;19955;-54
2023/08/17 04:59:21;;;;;;;;;;;20.10;56.70;;;16.10;100.00;95587.41;5007094;28;19920;-53
2023/08/17 05:01:47;;;;;;;;;;;20.10;56.70;;;16.13;100.00;95584.91;5003200;28;19954;-50
2023/08/17 05:04:12;;;;;;;;;;;20.20;56.70;;;16.28;100.00;95591.09;5007554;28;20442;-52
2023/08/17 05:06:38;;;;;;;;;;;20.30;56.70;;;16.40;100.00;95594.84;5012882;28;19909;-50
2023/08/17 05:09:05;;;;;;;;;;;20.40;56.70;;;16.46;100.00;95598.25;4999321;28;19913;-52
2023/08/17 05:11:31;;;;;;;;;;;20.50;56.70;;;16.59;100.00;95593.94;5018609;28;19909;-54
2023/08/17 05:13:57;;;;;;;;;;;20.60;56.70;;;16.82;100.00;95595.59;5008673;28;19913;-54
2023/08/17 05:16:23;;;;;;;;;;;20.80;56.70;;;16.95;99.32;95595.84;4993396;28;19956;-52
2023/08/17 05:18:48;;;;;;;;;;;20.90;56.60;;;17.10;98.64;95598.19;5009875;28;19909;-53
2023/08/17 05:21:14;;;;;;;;;;;21.10;56.60;;;17.20;98.13;95595.25;5008039;28;19913;-48
2023/08/17 05:23:40;;;;;;;;;;;21.20;56.50;;;17.29;97.50;95598.78;5002788;28;19909;-49
2023/08/17 05:26:06;;;;;;;;;;;21.30;56.40;;;17.36;97.17;95603.78;5004605;28;20461;-51
2023/08/17 05:28:31;;;;;;;;;;;21.40;56.40;;;17.41;97.17;95609.00;4999466;28;19924;-54
2023/08/17 05:31:06;;;;;;;;;;;21.50;56.30;;;17.45;96.92;95607.28;4995777;28;19943;-51
2023/08/17 05:33:32;;;;;;;;;;;21.60;56.20;;;17.53;97.52;95600.38;5004053;28;19956;-49
2023/08/17 05:35:58;;;;;;;;;;;21.70;56.10;;;17.67;97.06;95603.78;4997858;28;19975;-47
2023/08/17 05:38:23;;;;;;;;;;;21.90;56.00;;;17.85;96.65;95601.19;4999355;28;19909;-54
2023/08/17 05:40:56;;;;;;;;;;;22.10;55.80;;;18.05;95.82;95603.38;4990753;28;19972;-53
2023/08/17 05:43:22;;;;;;;;;;;22.30;56.30;;;18.29;94.79;95604.84;5008846;28;19920;-52
2023/08/17 05:45:48;;;;;;;;;;;22.60;55.60;;;18.48;92.82;95600.78;5009059;28;19954;-53
2023/08/17 05:48:13;;;;;;;;;;;22.80;55.40;;;18.71;92.17;95606.88;5005580;28;19917;-50
2023/08/17 05:50:43;;;;;;;;;;;23.10;55.30;;;18.99;91.10;95603.91;5000068;28;19909;-49
2023/08/17 05:53:09;;;;;;;;;;;23.40;55.00;;;19.29;89.75;95609.44;5008523;28;19970;-48
2023/08/17 05:55:34;;;;;;;;;;;23.70;54.80;;;19.58;87.29;95612.25;4997890;28;19996;-50
2023/08/17 05:58:01;;;;;;;;;;;24.00;54.60;;;19.91;83.20;95621.75;5009679;28;19980;-50
2023/08/17 06:00:27;;;;;;;;;;;24.40;54.30;;;20.23;82.96;95621.13;4999020;28;19909;-51
2023/08/17 06:02:55;;;;;;;;;;;24.70;54.00;;;20.46;79.34;95613.53;4995313;28;20371;-47
2023/08/17 06:05:25;;;;;;;;;;;25.00;53.70;;;20.69;75.07;95621.41;5000752;28;19910;-49
2023/08/17 06:07:51;;;;;;;;;;;25.30;53.50;;;20.90;75.43;95626.84;4994530;28;20335;-48
2023/08/17 06:10:17;;;;;;;;;;;25.50;53.90;;;21.08;75.92;95627.50;5000392;28;19909;-47
2023/08/17 06:12:43;;;;;;;;;;;25.70;53.00;;;21.14;73.81;95624.28;5002223;28;19913;-48
2023/08/17 06:15:09;;;;;;;;;;;25.90;52.80;;;21.24;71.68;95628.50;5013249;28;19909;-48
2023/08/17 06:17:35;;;;;;;;;;;26.00;53.20;;;21.31;71.81;95620.63;5000371;28;19924;-51
2023/08/17 06:20:01;;;;;;;;;;;26.10;52.30;;;21.38;72.46;95620.91;5008240;28;19909;-49
2023/08/17 06:22:26;;;;;;;;;;;26.20;52.00;;;21.41;72.48;95612.13;5011041;28;20442;-52
2023/08/17 06:24:52;;;;;;;;;;;26.30;51.80;;;21.55;72.15;95619.97;5002112;28;19971;-52
2023/08/17 06:27:18;;;;;;;;;;;26.40;51.60;;;21.68;69.90;95615.38;5014814;28;20379;-51
2023/08/17 06:29:44;;;;;;;;;;;26.60;51.50;;;21.80;67.62;95620.81;5008235;28;19909;-50
2023/08/17 06:32:10;;;;;;;;;;;26.70;51.20;;;22.00;69.63;95619.19;5003294;28;19916;-54
2023/08/17 06:34:36;;;;;;;;;;;26.90;51.00;;;22.24;67.69;95623.06;5004575;28;20292;-50
2023/08/17 06:37:03;;;;;;;;;;;27.20;50.80;;;22.50;65.83;95626.25;5006892;28;20378;-53
2023/08/17 06:39:29;;;;;;;;;;;27.50;50.60;;;22.82;64.80;95623.75;5009370;28;19909;-53
2023/08/17 06:41:55;;;;;;;;;;;27.80;50.40;;;23.19;64.21;95626.38;5006103;28;20016;-51
2023/08/17 06:44:21;;;;;;;;;;;28.10;50.70;;;23.50;61.33;95625.72;5008194;28;19947;-50
2023/08/17 06:46:47;;;;;;;;;;;28.50;49.90;;;23.85;62.27;95636.00;4998086;28;19917;-51
2023/08/17 06:49:13;;;;;;;;;;;28.90;49.60;;;24.08;58.34;95628.06;5008488;28;19916;-53
2023/08/17 06:51:39;;;;;;;;;;;29.20;49.20;;;24.39;55.26;95627.28;4998055;28;19920;-51
2023/08/17 06:54:07;;;;;;;;;;;29.60;48.80;;;24.75;56.90;95630.84;5025095;23;19925;-54
2023/08/17 06:56:33;;;;;;;;;;;29.90;48.30;;;25.11;52.56;95627.00;5011729;28;19917;-52
2023/08/17 06:58:59;;;;;;;;;;;30.30;48.00;;;25.36;52.18;95633.78;5013705;28;19916;-55
2023/08/17 07:01:24;;;;;;;;;;;30.60;47.50;;;25.41;50.73;95629.97;5014879;28;20023;-55
2023/08/17 07:03:50;;;;;;;;;;;30.80;47.00;;;25.71;50.49;95627.44;5014108;28;20305;-52
2023/08/17 07:06:16;;;;;;;;;;;31.10;46.70;;;26.08;50.10;95632.44;5014969;28;19912;-53
2023/08/17 07:08:43;;;;;;;;;;;31.40;46.30;;;26.28;48.61;95630.44;5014879;28;19913;-54
2023/08/17 07:11:09;;;;;;;;;;;31.70;45.90;;;26.40;48.37;95627.53;5013589;28;19908;-53
2023/08/17 07:13:35;;;;;;;;;;;31.90;45.60;;;26.55;47.60;95634.03;5014638;28;19909;-54
2023/08/17 07:16:00;;;;;;;;;;;32.20;45.30;;;26.65;47.37;95641.59;5013598;28;20363;-55
2023/08/17 07:18:26;;;;;;;;;;;32.40;44.80;;;26.89;45.96;95639.59;5013876;28;19958;-50
2023/08/17 07:20:52;;;;;;;;;;;32.60;44.50;;;26.94;45.09;95631.88;5014982;28;19963;-52
2023/08/17 07:23:17;;;;;;;;;;;32.90;44.10;;;27.24;44.06;95636.63;5013887;28;20279;-49
2023/08/17 07:25:44;;;;;;;;;;;33.10;43.70;;;27.53;43.68;95645.19;5014807;28;19913;-51
2023/08/17 07:28:10;;;;;;;;;;;33.30;43.20;;;27.59;44.17;95640.97;5013525;28;19913;-51
2023/08/17 07:30:35;;;;;;;;;;;33.50;42.70;;;27.56;44.14;95638.97;5014531;28;19931;-51
2023/08/17 07:33:01;;;;;;;;;;;33.70;42.40;;;27.76;43.91;95642.31;5014500;28;19935;-53
2023/08/17 07:35:27;;;;;;;;;;;33.90;42.20;;;28.05;43.51;95641.50;5012400;28;20326;-51
2023/08/17 07:37:53;;;;;;;;;;;34.10;41.90;;;28.41;43.09;95647.31;5014564;28;20015;-49
2023/08/17 07:40:18;;;;;;;;;;;34.20;41.50;;;28.66;42.39;95649.47;5013321;28;20389;-51
2023/08/17 07:42:46;;;;;;;;;;;34.40;41.40;;;28.80;43.16;95655.88;5014114;28;19944;-54
2023/08/17 07:45:12;;;;;;;;;;;34.50;41.20;;;28.77;42.95;95653.88;5014302;28;19916;-53
2023/08/17 07:47:38;;;;;;;;;;;34.60;41.00;;;28.80;43.09;95644.91;5013092;28;19913;-53
2023/08/17 07:50:05;;;;;;;;;;;34.80;40.80;;;29.08;43.50;95649.00;5014523;28;19955;-54
2023/08/17 07:52:31;;;;;;;;;;;34.90;40.60;;;29.34;42.74;95647.22;5013036;28;19956;-52
2023/08/17 07:54:57;;;;;;;;;;;35.10;40.40;;;29.61;41.46;95651.25;5014180;28;20362;-51
2023/08/17 07:57:23;;;;;;;;;;;35.30;40.20;;;29.72;40.96;95652.09;5013300;28;20042;-52
2023/08/17 07:59:48;;;;;;;;;;;35.50;39.90;;;29.91;40.27;95642.75;5014201;28;19978;-52
2023/08/17 08:02:14;;;;;;;;;;;35.70;39.50;;;30.12;39.72;95657.72;5013963;28;19931;-49
2023/08/17 08:04:40;;;;;;;;;;;35.90;39.30;;;30.41;39.67;95653.84;5013148;28;19909;-47
2023/08/17 08:07:06;;;;;;;;;;;36.10;39.00;;;30.63;39.63;95662.09;5013983;28;20351;-46
2023/08/17 08:09:31;;;;;;;;;;;36.40;38.70;;;30.94;38.41;95659.75;5012888;28;19951;-52
2023/08/17 08:11:57;;;;;;;;;;;36.70;38.40;;;31.05;37.63;95660.50;5013661;28;19955;-50
2023/08/17 08:14:23;;;;;;;;;;;36.90;38.10;;;31.16;38.03;95668.75;5013891;28;19948;-53
2023/08/17 08:16:49;;;;;;;;;;;37.20;38.40;;;31.20;38.28;95656.56;5011273;28;20350;-52
2023/08/17 08:19:14;;;;;;;;;;;37.40;37.40;;;31.06;37.62;95662.09;5013673;28;20368;-53
2023/08/17 08:21:40;;;;;;;;;;;37.70;37.20;;;31.54;38.37;95662.38;5012886;28;19966;-53
2023/08/17 08:24:06;;;;;;;;;;;37.80;36.80;;;31.76;37.23;95665.84;5012523;28;19919;-50
2023/08/17 08:26:32;;;;;;;;;;;38.00;36.70;;;31.90;37.59;95667.75;5013542;28;20412;-52
2023/08/17 08:28:58;;;;;;;;;;;38.10;36.60;;;31.91;36.10;95672.09;5012411;28;19916;-52
2023/08/17 08:31:23;;;;;;;;;;;38.30;36.30;;;31.96;36.96;95668.13;5006366;28;19910;-52
2023/08/17 08:33:50;;;;;;;;;;;38.50;36.00;;;32.26;35.97;95664.81;5010374;28;20363;-48
2023/08/17 08:36:16;;;;;;;;;;;38.70;35.80;;;32.45;36.04;95674.56;5013692;28;19909;-53
2023/08/17 08:38:41;;;;;;;;;;;38.80;35.50;;;32.53;35.63;95673.34;5013626;28;19924;-49
2023/08/17 08:41:09;;;;;;;;;;;39.00;35.40;;;32.69;35.54;95681.88;5012665;28;19913;-51
2023/08/17 08:43:35;;;;;;;;;;;39.20;35.10;;;32.58;35.10;95677.63;5025324;28;19945;-52
2023/08/17 08:46:02;;;;;;;;;;;39.40;34.90;;;32.56;34.88;95669.75;5027698;28;19915;-51
2023/08/17 08:48:31;;;;;;;;;;;39.60;34.60;;;32.79;35.31;95668.41;5013250;28;19912;-50
2023/08/17 08:51:00;;;;;;;;;;;39.70;34.30;;;32.40;35.92;95677.72;5013282;28;19909;-48
2023/08/17 08:53:39;;;;;;;;;;;39.80;34.10;;;32.79;35.73;95671.94;5011873;28;20435;-51
2023/08/17 08:56:12;;;;;;;;;;;39.90;33.90;;;32.59;36.75;95679.19;5007611;28;19909;-48
2023/08/17 08:58:39;;;;;;;;;;;39.90;34.30;;;32.56;37.25;95678.03;5011176;28;20732;-49
2023/08/17 09:01:10;;;;;;;;;;;39.90;33.40;;;33.02;35.96;95682.41;5010943;28;19916;-54
2023/08/17 09:03:36;;;;;;;;;;;40.00;33.40;;;33.29;36.16;95685.28;5016990;28;20394;-50
2023/08/17 09:06:04;;;;;;;;;;;40.10;33.30;;;33.58;35.99;95676.72;5001732;28;19962;-55
2023/08/17 09:08:30;;;;;;;;;;;40.40;33.20;;;33.56;34.85;95684.63;5028387;28;19913;-54
2023/08/17 09:10:57;;;;;;;;;;;40.50;33.00;;;33.80;35.43;95680.78;5012171;28;19909;-54
2023/08/17 09:13:23;;;;;;;;;;;40.70;32.80;;;33.84;35.24;95683.50;5028291;28;20058;-51
2023/08/17 09:15:48;;;;;;;;;;;40.90;32.60;;;33.84;35.12;95677.97;5008299;28;20339;-54
2023/08/17 09:18:17;;;;;;;;;;;41.00;32.30;;;33.98;35.54;95674.28;5006798;28;19909;-56
2023/08/17 09:20:46;;;;;;;;;;;41.20;32.10;;;34.19;35.29;95679.53;5012852;28;20373;-55
2023/08/17 09:23:15;;;;;;;;;;;41.40;32.00;;;34.37;35.57;95682.03;5012747;28;19909;-54
2023/08/17 09:25:44;;;;;;;;;;;41.60;31.70;;;34.52;34.89;95679.84;5012710;28;19916;-55
2023/08/17 09:28:15;;;;;;;;;;;41.60;31.40;;;34.22;36.58;95680.66;5011495;28;19958;-48
2023/08/17 09:31:03;;;;;;;;;;;41.50;31.10;;;34.11;36.36;95677.28;5012583;28;19909;-53
2023/08/17 09:33:32;;;;;;;;;;;41.20;31.20;;;33.65;36.97;95682.16;5010776;28;19909;-53
2023/08/17 09:36:00;;;;;;;;;;;40.90;31.30;;;33.43;37.04;95678.03;5011835;28;19931;-51
2023/08/17 09:38:27;;;;;;;;;;;40.60;31.50;;;33.19;37.69;95669.63;5012535;28;19909;-55
2023/08/17 09:40:53;;;;;;;;;;;40.20;31.70;;;32.86;38.54;95668.34;5011648;28;19917;-55
2023/08/17 09:43:21;;;;;;;;;;;39.90;32.00;;;32.36;39.40;95672.22;5012222;28;20003;-53
2023/08/17 09:45:51;;;;;;;;;;;39.70;32.10;;;32.77;39.05;95679.81;5010350;28;20302;-49
2023/08/17 09:48:19;;;;;;;;;;;39.80;32.70;;;32.95;38.72;95677.69;4999453;28;19913;-55
2023/08/17 09:50:46;;;;;;;;;;;39.80;32.00;;;33.08;38.05;95678.00;5010051;28;20287;-48
2023/08/17 09:53:15;;;;;;;;;;;39.70;32.00;;;33.09;38.39;95685.06;5006221;28;19909;-53
2023/08/17 09:55:43;;;;;;;;;;;39.60;32.10;;;33.20;38.56;95684.22;5012151;28;19917;-51
2023/08/17 09:58:09;;;;;;;;;;;39.50;32.10;;;32.74;38.97;95672.38;5011398;28;19967;-50
2023/08/17 10:00:38;;;;;;;;;;;39.40;32.00;;;31.88;40.66;95672.88;5011406;28;20325;-49
2023/08/17 10:03:04;;;;;;;;;;;39.00;31.70;;;32.09;40.75;95674.78;5010532;28;20012;-50
2023/08/17 10:05:40;;;;;;;;;;;38.80;31.90;;;31.96;41.32;95679.16;5015583;28;19913;-49
2023/08/17 10:08:10;;;;;;;;;;;38.50;32.10;;;31.91;41.23;95676.84;5010908;28;19917;-54
2023/08/17 10:10:43;;;;;;;;;;;38.40;32.30;;;31.61;41.84;95672.59;5020693;28;19916;-54
2023/08/17 10:13:34;;;;;;;;;;;38.20;32.40;;;31.27;42.02;95675.78;5027028;28;19909;-55
2023/08/17 10:16:31;;;;;;;;;;;38.00;32.50;;;31.08;43.01;95674.25;5011550;28;19909;-49
2023/08/17 10:19:13;;;;;;;;;;;37.90;32.30;;;31.64;42.25;95673.75;5013386;28;19956;-51
2023/08/17 10:22:15;;;;;;;;;;;38.10;32.20;;;32.30;41.52;95673.06;5009862;28;19909;-52
2023/08/17 10:24:42;;;;;;;;;;;38.40;32.50;;;32.84;40.86;95676.22;5005393;28;19920;-52
2023/08/17 10:27:10;;;;;;;;;;;38.70;32.40;;;32.99;39.43;95672.19;4997763;28;20439;-50
2023/08/17 10:29:38;;;;;;;;;;;39.10;32.30;;;33.46;38.90;95664.19;5011017;28;20272;-50
2023/08/17 10:32:07;;;;;;;;;;;39.40;32.20;;;33.93;38.31;95666.44;5010692;28;20007;-49
2023/08/17 10:34:35;;;;;;;;;;;39.80;32.10;;;34.30;37.15;95655.28;5010665;28;20023;-55
2023/08/17 10:37:02;;;;;;;;;;;40.10;31.90;;;34.67;37.19;95650.78;5011761;28;19916;-51
2023/08/17 10:39:30;;;;;;;;;;;40.50;31.80;;;35.08;35.41;95652.50;5011261;28;19962;-50
2023/08/17 10:41:58;;;;;;;;;;;40.90;31.60;;;34.89;35.40;95648.44;5010017;28;19909;-50
2023/08/17 10:44:47;;;;;;;;;;;41.20;31.10;;;34.50;34.84;95651.81;5011661;28;19920;-53
2023/08/17 10:47:32;;;;;;;;;;;41.40;30.60;;;34.60;35.91;95648.16;5011876;28;19967;-55
2023/08/17 10:50:28;;;;;;;;;;;41.60;30.20;;;34.78;34.88;95625.72;5004024;28;19909;-53
2023/08/17 10:52:54;;;;;;;;;;;41.60;30.00;;;34.93;34.25;95643.63;5017627;28;19913;-54
2023/08/17 10:55:40;;;;;;;;;;;41.80;29.90;;;35.07;32.85;95639.88;5015498;28;19956;-54
2023/08/17 10:58:08;;;;;;;;;;;42.00;29.80;;;34.94;32.92;95634.16;5014401;28;20334;-55
2023/08/17 11:00:38;;;;;;;;;;;42.00;29.50;;;35.12;33.15;95630.28;5015157;28;19913;-56
2023/08/17 11:03:16;;;;;;;;;;;42.10;29.40;;;34.88;33.07;95635.84;5015383;28;19909;-54
2023/08/17 11:05:58;;;;;;;;;;;42.20;29.30;;;34.49;33.98;95634.44;5014088;28;19931;-51
2023/08/17 11:08:50;;;;;;;;;;;42.10;29.00;;;34.53;33.80;95626.91;5015037;28;20011;-56
2023/08/17 11:11:19;;;;;;;;;;;42.00;28.80;;;35.07;33.11;95626.03;5008463;28;19909;-56
2023/08/17 11:13:48;;;;;;;;;;;42.10;28.90;;;34.85;33.04;95628.38;5010080;28;19913;-55
2023/08/17 11:16:16;;;;;;;;;;;42.30;28.70;;;34.98;33.08;95628.53;5007871;28;19919;-54
2023/08/17 11:18:42;;;;;;;;;;;42.40;28.60;;;35.21;32.70;95630.50;5013954;28;19909;-51